createdAt,value
2019-04-11T00:01:53.548Z,46.55
2019-04-11T00:04:24.244Z,46.69
2019-04-11T00:06:54.452Z,46.85
2019-04-11T00:09:24.841Z,46.77
2019-04-11T00:11:54.822Z,46.99
2019-04-11T00:14:24.727Z,47.14
2019-04-11T00:16:55.409Z,47.06
2019-04-11T00:19:25.633Z,47.33
2019-04-11T00:21:55.753Z,47.39
2019-04-11T00:24:25.594Z,47.71
2019-04-11T00:26:55.505Z,47.94
2019-04-11T00:29:26.087Z,47.91
2019-04-11T00:31:56.945Z,47.74
2019-04-11T00:34:27.335Z,47.78
2019-04-11T00:36:57.231Z,48.01
2019-04-11T00:39:27.851Z,47.77
2019-04-11T00:41:58.622Z,47.93
2019-04-11T00:44:28.603Z,48.06
2019-04-11T00:46:58.564Z,48.18
2019-04-11T00:49:28.522Z,48.16
2019-04-11T00:51:58.376Z,48.19
2019-04-11T00:54:29.017Z,48.24
2019-04-11T00:56:59.437Z,48.28
2019-04-11T00:59:30.084Z,48.28
2019-04-11T01:02:00.954Z,48.34
2019-04-11T01:04:31.038Z,48.45
2019-04-11T01:07:02.659Z,48.32
2019-04-11T01:09:34.727Z,48.43
2019-04-11T01:12:05.410Z,48.67
2019-04-11T01:14:37.224Z,48.65
2019-04-11T01:17:07.857Z,48.39
2019-04-11T01:19:38.711Z,48.85
2019-04-11T01:22:09.707Z,48.82
2019-04-11T01:24:40.048Z,49.01
2019-04-11T01:27:10.238Z,48.99
2019-04-11T01:29:40.308Z,48.67
2019-04-11T01:32:11.222Z,48.27
2019-04-11T01:34:42.511Z,48.37
2019-04-11T01:37:12.805Z,48.36
2019-04-11T01:40:11.803Z,48.38
2019-04-11T01:42:41.919Z,48.36
2019-04-11T01:45:13.572Z,48.41
2019-04-11T01:47:49.719Z,48.63
2019-04-11T01:50:23.354Z,48.37
2019-04-11T01:52:53.249Z,48.51
2019-04-11T01:55:24.110Z,48.75
2019-04-11T01:57:54.133Z,48.27
2019-04-11T02:00:42.047Z,48.43
2019-04-11T02:03:14.954Z,48.32
2019-04-11T02:05:45.419Z,48.53
2019-04-11T02:08:15.404Z,48.75
2019-04-11T02:10:45.381Z,48.90
2019-04-11T02:13:15.614Z,48.44
2019-04-11T02:15:46.292Z,48.57
2019-04-11T02:18:16.157Z,48.23
2019-04-11T02:20:47.251Z,48.15
2019-04-11T02:23:23.377Z,48.46
2019-04-11T02:26:07.166Z,48.44
2019-04-11T02:28:37.394Z,48.43
2019-04-11T02:31:09.694Z,48.71
2019-04-11T02:33:39.052Z,49.10
2019-04-11T02:36:10.034Z,49.03
2019-04-11T02:38:41.251Z,49.05
2019-04-11T02:41:12.484Z,49.00
2019-04-11T02:43:44.482Z,49.45
2019-04-11T02:46:24.587Z,49.41
2019-04-11T02:48:46.662Z,49.38
2019-04-11T02:51:18.207Z,49.49
2019-04-11T02:53:49.551Z,49.40
2019-04-11T02:56:21.326Z,49.06
2019-04-11T02:58:52.279Z,48.84
2019-04-11T03:01:24.114Z,48.78
2019-04-11T03:03:54.599Z,48.95
2019-04-11T03:06:27.922Z,48.80
2019-04-11T03:08:59.344Z,48.92
2019-04-11T03:11:30.381Z,49.19
2019-04-11T03:14:03.833Z,49.33
2019-04-11T03:16:46.482Z,49.67
2019-04-11T03:19:24.074Z,49.72
2019-04-11T03:21:41.169Z,49.82
2019-04-11T03:24:10.894Z,49.89
2019-04-11T03:26:43.392Z,50.43
2019-04-11T03:29:13.461Z,50.38
2019-04-11T03:32:17.666Z,50.71
2019-04-11T03:37:19.476Z,50.84
2019-04-11T03:39:39.489Z,50.51
2019-04-11T03:42:07.615Z,50.77
2019-04-11T03:44:30.657Z,50.88
2019-04-11T03:47:13.967Z,50.74
2019-04-11T03:49:35.433Z,51.02
2019-04-11T03:51:59.279Z,50.85
2019-04-11T03:54:29.513Z,50.83
2019-04-11T03:57:00.918Z,50.77
2019-04-11T03:59:33.560Z,50.12
2019-04-11T04:02:03.565Z,50.24
2019-04-11T04:04:35.370Z,50.14
2019-04-11T04:07:08.783Z,50.82
2019-04-11T04:09:39.750Z,50.90
2019-04-11T04:12:11.462Z,50.79
2019-04-11T04:15:32.553Z,50.81
2019-04-11T04:17:57.298Z,50.79
2019-04-11T04:20:40.134Z,51.02
2019-04-11T04:23:14.667Z,51.52
2019-04-11T04:25:46.780Z,52.20
2019-04-11T04:28:16.483Z,52.60
2019-04-11T04:30:46.967Z,52.94
2019-04-11T04:33:19.322Z,53.45
2019-04-11T04:35:49.787Z,53.72
2019-04-11T04:38:21.110Z,54.32
2019-04-11T04:41:08.830Z,54.45
2019-04-11T04:43:25.172Z,54.75
2019-04-11T04:46:13.588Z,55.33
2019-04-11T04:48:29.366Z,55.55
2019-04-11T04:51:03.350Z,55.62
2019-04-11T04:53:30.991Z,55.93
2019-04-11T04:56:02.646Z,55.80
2019-04-11T04:58:33.943Z,55.87
2019-04-11T05:01:06.806Z,55.96
2019-04-11T05:03:37.775Z,56.45
2019-04-11T05:06:07.823Z,56.70
2019-04-11T05:08:39.044Z,56.74
2019-04-11T05:11:08.968Z,56.61
2019-04-11T05:13:40.865Z,56.55
2019-04-11T05:16:17.155Z,56.45
2019-04-11T05:18:42.441Z,56.60
2019-04-11T05:21:12.885Z,56.35
2019-04-11T05:23:42.931Z,56.34
2019-04-11T05:26:13.148Z,56.30
2019-04-11T05:28:43.665Z,55.70
2019-04-11T05:31:14.384Z,56.45
2019-04-11T05:33:45.554Z,56.94
2019-04-11T05:36:16.548Z,56.67
2019-04-11T05:38:46.651Z,56.88
2019-04-11T05:41:17.453Z,56.46
2019-04-11T05:43:49.394Z,56.00
2019-04-11T05:47:09.002Z,56.08
2019-04-11T05:49:50.632Z,55.87
2019-04-11T05:56:25.719Z,54.73
2019-04-11T05:58:57.795Z,54.78
2019-04-11T06:05:24.530Z,54.34
2019-04-11T06:07:58.065Z,53.71
2019-04-11T06:10:46.934Z,53.20
2019-04-11T06:13:36.438Z,52.79
2019-04-11T06:16:08.266Z,53.43
2019-04-11T06:18:52.207Z,53.77
2019-04-11T06:21:28.294Z,53.35
2019-04-11T06:24:20.933Z,53.64
2019-04-11T06:27:04.039Z,53.17
2019-04-11T06:29:56.065Z,53.12
2019-04-11T06:32:38.431Z,53.83
2019-04-11T06:35:13.991Z,53.16
2019-04-11T06:38:16.410Z,52.99
2019-04-11T06:40:57.815Z,52.77
2019-04-11T06:43:50.099Z,53.22
2019-04-11T06:46:52.385Z,53.31
2019-04-11T06:49:24.923Z,53.35
2019-04-11T06:51:58.016Z,53.18
2019-04-11T06:54:47.392Z,53.13
2019-04-11T06:57:21.617Z,52.59
2019-04-11T06:59:52.574Z,52.63
2019-04-11T07:02:25.034Z,52.11
2019-04-11T07:05:02.523Z,51.56
2019-04-11T07:07:35.627Z,51.61
2019-04-11T07:10:07.941Z,51.30
2019-04-11T07:13:00.909Z,50.44
2019-04-11T07:15:35.508Z,50.88
2019-04-11T07:18:24.813Z,49.67
2019-04-11T07:20:58.581Z,50.16
2019-04-11T07:23:49.014Z,49.99
2019-04-11T07:26:45.741Z,50.50
2019-04-11T07:29:37.911Z,51.02
2019-04-11T07:32:13.654Z,51.24
2019-04-11T07:35:12.863Z,49.85
2019-04-11T07:37:49.175Z,50.08
2019-04-11T07:40:39.201Z,50.19
2019-04-11T07:43:41.270Z,50.10
2019-04-11T07:46:22.742Z,49.51
2019-04-11T07:49:06.363Z,49.19
2019-04-11T07:51:55.792Z,48.71
2019-04-11T07:54:28.091Z,48.80
2019-04-11T07:57:04.110Z,48.65
2019-04-11T08:00:00.324Z,49.21
2019-04-11T08:02:48.263Z,48.60
2019-04-11T08:05:36.685Z,48.52
2019-04-11T08:08:25.735Z,47.58
2019-04-11T08:11:03.758Z,47.64
2019-04-11T08:13:47.451Z,48.16
2019-04-11T08:16:35.218Z,47.46
2019-04-11T08:19:24.842Z,47.17
2019-04-11T08:22:00.888Z,47.03
2019-04-11T08:24:40.597Z,46.66
2019-04-11T08:27:49.801Z,46.75
2019-04-11T08:30:10.754Z,46.28
2019-04-11T08:32:46.508Z,46.03
2019-04-11T08:35:34.871Z,46.34
2019-04-11T08:38:08.026Z,45.20
2019-04-11T08:40:53.331Z,44.71
2019-04-11T08:43:26.967Z,44.51
2019-04-11T08:46:01.089Z,44.00
2019-04-11T08:48:35.169Z,43.03
2019-04-11T08:51:08.665Z,43.20
2019-04-11T08:53:53.242Z,43.44
2019-04-11T08:56:23.529Z,42.01
2019-04-11T08:59:29.889Z,43.58
2019-04-11T09:02:02.506Z,41.81
2019-04-11T09:05:03.253Z,41.50
2019-04-11T09:07:29.694Z,41.62
2019-04-11T09:10:22.404Z,40.53
2019-04-11T09:13:00.564Z,40.79
2019-04-11T09:15:50.656Z,40.83
2019-04-11T09:18:21.848Z,39.06
2019-04-11T09:21:10.085Z,38.02
2019-04-11T09:23:41.869Z,38.27
2019-04-11T09:26:20.286Z,38.72
2019-04-11T09:28:53.565Z,39.54
2019-04-11T09:31:43.953Z,40.53
2019-04-11T09:34:33.609Z,40.27
2019-04-11T09:37:29.603Z,39.36
2019-04-11T09:40:12.876Z,40.26
2019-04-11T09:42:53.484Z,39.41
2019-04-11T09:45:52.649Z,39.00
2019-04-11T09:48:31.538Z,39.05
2019-04-11T09:51:40.281Z,36.75
2019-04-11T09:54:26.107Z,33.84
2019-04-11T09:57:18.541Z,33.29
2019-04-11T10:00:08.203Z,28.96
2019-04-11T10:02:48.849Z,27.98
2019-04-11T10:05:22.418Z,27.25
2019-04-11T10:08:04.987Z,25.09
2019-04-11T10:10:54.459Z,25.70
2019-04-11T10:13:47.365Z,29.90
2019-04-11T10:16:35.900Z,32.02
2019-04-11T10:19:11.971Z,32.08
2019-04-11T10:21:46.040Z,33.11
2019-04-11T10:24:22.428Z,33.85
2019-04-11T10:27:00.542Z,33.68
2019-04-11T10:29:49.047Z,33.57
2019-04-11T10:32:23.239Z,33.59
2019-04-11T10:35:05.983Z,33.49
2019-04-11T10:37:37.968Z,33.26
2019-04-11T10:40:32.553Z,33.02
2019-04-11T10:43:02.588Z,33.48
2019-04-11T10:45:53.104Z,33.41
2019-04-11T10:48:34.523Z,33.00
2019-04-11T10:51:18.356Z,33.40
2019-04-11T10:53:51.239Z,32.94
2019-04-11T10:56:41.174Z,32.97
2019-04-11T10:59:13.363Z,32.85
2019-04-11T11:02:01.968Z,32.32
2019-04-11T11:04:45.175Z,33.08
2019-04-11T11:07:18.857Z,33.11
2019-04-11T11:10:03.203Z,33.15
2019-04-11T11:12:53.785Z,33.20
2019-04-11T11:15:27.517Z,33.61
2019-04-11T11:18:41.152Z,34.15
2019-04-11T11:20:53.985Z,34.36
2019-04-11T11:23:52.780Z,34.10
2019-04-11T11:26:27.672Z,34.65
2019-04-11T11:29:17.486Z,34.50
2019-04-11T11:32:00.867Z,35.00
2019-04-11T11:34:38.948Z,35.10
2019-04-11T11:37:27.246Z,35.05
2019-04-11T11:40:16.596Z,35.06
2019-04-11T11:43:04.005Z,34.92
2019-04-11T11:45:56.384Z,34.42
2019-04-11T11:48:35.593Z,34.43
2019-04-11T11:51:13.495Z,34.32
2019-04-11T11:53:59.382Z,35.04
2019-04-11T11:56:29.982Z,35.59
2019-04-11T11:59:11.164Z,35.91
2019-04-11T12:01:49.757Z,36.18
2019-04-11T12:04:37.817Z,35.85
2019-04-11T12:07:09.994Z,35.92
2019-04-11T12:10:02.825Z,35.54
2019-04-11T12:12:42.466Z,35.39
2019-04-11T12:15:41.466Z,34.83
2019-04-11T12:18:26.761Z,34.57
2019-04-11T12:21:01.022Z,34.79
2019-04-11T12:23:55.577Z,34.11
2019-04-11T12:26:16.784Z,34.50
2019-04-11T12:29:22.021Z,33.82
2019-04-11T12:31:55.733Z,34.35
2019-04-11T12:34:36.682Z,34.51
2019-04-11T12:37:12.486Z,34.50
2019-04-11T12:40:01.007Z,34.21
2019-04-11T12:42:34.387Z,34.21
2019-04-11T12:45:22.812Z,34.03
2019-04-11T12:47:58.792Z,33.83
2019-04-11T12:50:46.743Z,34.10
2019-04-11T12:53:27.143Z,34.32
2019-04-11T12:56:07.086Z,34.53
2019-04-11T12:59:01.666Z,34.34
2019-04-11T13:01:51.843Z,34.41
2019-04-11T13:04:30.068Z,34.01
2019-04-11T13:07:26.039Z,33.09
2019-04-11T13:10:02.842Z,33.31
2019-04-11T13:12:42.073Z,32.64
2019-04-11T13:15:46.916Z,32.89
2019-04-11T13:18:35.904Z,33.05
2019-04-11T13:21:22.176Z,32.82
2019-04-11T13:24:11.619Z,32.99
2019-04-11T13:26:59.694Z,32.45
2019-04-11T13:29:58.180Z,32.83
2019-04-11T13:32:33.662Z,32.88
2019-04-11T13:35:18.074Z,32.69
2019-04-11T13:38:22.907Z,32.35
2019-04-11T13:41:21.324Z,32.89
2019-04-11T13:43:54.206Z,33.13
2019-04-11T13:46:46.514Z,33.04
2019-04-11T13:49:45.325Z,33.30
2019-04-11T13:52:34.673Z,33.08
2019-04-11T13:55:21.641Z,32.67
2019-04-11T13:58:10.964Z,33.70
2019-04-11T14:00:51.822Z,33.98
2019-04-11T14:03:43.862Z,33.81
2019-04-11T14:06:40.520Z,33.62
2019-04-11T14:09:30.448Z,33.51
2019-04-11T14:11:59.605Z,33.24
2019-04-11T14:14:35.732Z,32.45
2019-04-11T14:17:17.803Z,32.28
2019-04-11T14:20:05.684Z,32.34
2019-04-11T14:23:14.871Z,32.50
2019-04-11T14:26:11.357Z,32.56
2019-04-11T14:28:44.390Z,31.99
2019-04-11T14:31:38.847Z,32.89
2019-04-11T14:34:29.373Z,32.93
2019-04-11T14:37:13.245Z,33.41
2019-04-11T14:39:46.258Z,34.14
2019-04-11T14:42:31.430Z,34.13
2019-04-11T14:45:05.665Z,34.28
2019-04-11T14:47:42.134Z,34.24
2019-04-11T14:50:12.358Z,34.30
2019-04-11T14:52:59.842Z,34.69
2019-04-11T14:55:30.395Z,34.93
2019-04-11T14:58:19.363Z,34.36
2019-04-11T15:00:53.765Z,33.80
2019-04-11T15:03:30.308Z,33.95
2019-04-11T15:06:05.520Z,33.94
2019-04-11T15:08:47.682Z,33.96
2019-04-11T15:11:49.768Z,34.11
2019-04-11T15:14:37.546Z,34.75
2019-04-11T15:17:17.243Z,36.25
2019-04-11T15:19:51.894Z,36.38
2019-04-11T15:22:40.660Z,36.83
2019-04-11T15:25:29.992Z,36.74
2019-04-11T15:28:23.391Z,36.71
2019-04-11T15:30:55.986Z,36.43
2019-04-11T15:33:43.915Z,36.38
2019-04-11T15:36:15.549Z,36.00
2019-04-11T15:39:03.640Z,36.12
2019-04-11T15:41:33.667Z,36.06
2019-04-11T15:44:25.859Z,35.76
2019-04-11T15:47:00.626Z,35.94
2019-04-11T15:49:48.696Z,36.03
2019-04-11T15:52:21.516Z,35.76
2019-04-11T15:55:11.871Z,35.72
2019-04-11T15:57:45.452Z,35.65
2019-04-11T16:00:45.221Z,35.12
2019-04-11T16:03:18.266Z,34.91
2019-04-11T16:06:10.439Z,35.09
2019-04-11T16:08:43.749Z,35.57
2019-04-11T16:11:20.728Z,35.98
2019-04-11T16:14:03.229Z,36.33
2019-04-11T16:16:58.697Z,36.01
2019-04-11T16:19:40.580Z,35.86
2019-04-11T16:22:43.246Z,36.29
2019-04-11T16:25:15.502Z,35.50
2019-04-11T16:28:08.147Z,35.87
2019-04-11T16:30:59.293Z,36.46
2019-04-11T16:33:47.455Z,36.46
2019-04-11T16:36:20.752Z,36.59
2019-04-11T16:38:58.763Z,36.83
2019-04-11T16:41:47.150Z,37.18
2019-04-11T16:44:25.026Z,37.49
2019-04-11T16:47:13.332Z,37.67
2019-04-11T16:49:43.252Z,38.07
2019-04-11T16:52:13.569Z,38.63
2019-04-11T16:54:43.487Z,39.26
2019-04-11T16:57:14.216Z,40.02
2019-04-11T16:59:44.909Z,40.63
2019-04-11T17:02:14.808Z,40.99
2019-04-11T17:04:45.114Z,41.39
2019-04-11T17:07:32.947Z,41.62
2019-04-11T17:10:04.246Z,41.96
2019-04-11T17:12:35.116Z,42.20
2019-04-11T17:15:06.343Z,42.51
2019-04-11T17:17:36.810Z,42.62
2019-04-11T17:20:07.872Z,42.90
2019-04-11T17:22:38.282Z,42.88
2019-04-11T17:25:09.348Z,43.13
2019-04-11T17:27:40.022Z,43.42
2019-04-11T17:30:10.755Z,43.59
2019-04-11T17:32:41.579Z,43.81
2019-04-11T17:35:15.393Z,43.77
2019-04-11T17:37:45.830Z,43.99
2019-04-11T17:40:16.463Z,44.19
2019-04-11T17:42:47.121Z,44.15
2019-04-11T17:45:17.458Z,43.87
2019-04-11T17:47:48.178Z,44.15
2019-04-11T17:50:18.700Z,44.32
2019-04-11T17:52:49.525Z,43.66
2019-04-11T17:55:23.870Z,43.96
2019-04-11T17:57:51.906Z,44.18
2019-04-11T18:00:30.085Z,44.22
2019-04-11T18:03:00.761Z,44.17
2019-04-11T18:05:31.722Z,44.60
2019-04-11T18:08:01.742Z,44.21
2019-04-11T18:10:32.464Z,44.61
2019-04-11T18:13:02.662Z,44.75
2019-04-11T18:15:36.612Z,44.92
2019-04-11T18:18:06.969Z,45.02
2019-04-11T18:20:37.598Z,45.20
2019-04-11T18:23:08.286Z,45.20
2019-04-11T18:25:39.240Z,45.33
2019-04-11T18:28:10.151Z,45.65
2019-04-11T18:30:41.896Z,45.62
2019-04-11T18:33:12.262Z,45.88
2019-04-11T18:35:42.790Z,45.37
2019-04-11T18:38:12.812Z,45.33
2019-04-11T18:40:43.403Z,45.51
2019-04-11T18:43:16.047Z,45.41
2019-04-11T18:45:45.333Z,45.66
2019-04-11T18:48:16.279Z,45.84
2019-04-11T18:50:46.573Z,46.12
2019-04-11T18:53:19.031Z,45.96
2019-04-11T18:55:48.686Z,46.05
2019-04-11T18:58:18.637Z,46.15
2019-04-11T19:00:50.406Z,46.11
2019-04-11T19:03:21.160Z,46.33
2019-04-11T19:05:51.583Z,46.48
2019-04-11T19:08:22.566Z,46.48
2019-04-11T19:10:52.790Z,46.46
2019-04-11T19:13:23.334Z,46.53
2019-04-11T19:15:53.904Z,46.65
2019-04-11T19:18:24.639Z,46.53
2019-04-11T19:20:54.537Z,46.78
2019-04-11T19:23:24.755Z,47.04
2019-04-11T19:25:55.187Z,46.92
2019-04-11T19:28:26.030Z,47.04
2019-04-11T19:30:56.978Z,46.85
2019-04-11T19:33:27.494Z,46.89
2019-04-11T19:35:57.712Z,47.09
2019-04-11T19:38:31.225Z,47.28
2019-04-11T19:41:01.752Z,47.14
2019-04-11T19:43:32.377Z,47.11
2019-04-11T19:46:02.314Z,47.23
2019-04-11T19:48:33.079Z,47.43
2019-04-11T19:51:03.712Z,47.35
2019-04-11T19:53:35.276Z,47.37
2019-04-11T19:56:11.722Z,47.50
2019-04-11T19:58:41.995Z,47.65
2019-04-11T20:01:12.346Z,47.52
2019-04-11T20:03:42.790Z,47.30
2019-04-11T20:06:13.463Z,47.47
2019-04-11T20:08:43.530Z,47.72
2019-04-11T20:11:13.501Z,47.86
2019-04-11T20:13:44.112Z,47.96
2019-04-11T20:16:14.356Z,48.12
2019-04-11T20:18:50.813Z,48.23
2019-04-11T20:21:17.034Z,48.32
2019-04-11T20:23:48.061Z,48.42
2019-04-11T20:26:20.918Z,48.38
2019-04-11T20:28:51.696Z,48.54
2019-04-11T20:31:22.242Z,48.71
2019-04-11T20:33:52.454Z,48.88
2019-04-11T20:36:32.923Z,49.23
2019-04-11T20:38:55.391Z,49.70
2019-04-11T20:41:26.067Z,50.25
2019-04-11T20:43:57.135Z,50.63
2019-04-11T20:46:29.161Z,51.10
2019-04-11T20:48:59.935Z,51.32
2019-04-11T20:51:30.188Z,51.68
2019-04-11T20:54:00.998Z,51.87
2019-04-11T20:56:30.931Z,52.02
2019-04-11T20:59:01.480Z,51.99
2019-04-11T21:01:31.362Z,52.03
2019-04-11T21:04:04.472Z,52.10
2019-04-11T21:06:33.481Z,52.44
2019-04-11T21:09:05.223Z,52.45
2019-04-11T21:11:37.210Z,52.50
2019-04-11T21:14:07.308Z,52.14
2019-04-11T21:16:37.623Z,52.35
2019-04-11T21:19:07.632Z,52.64
2019-04-11T21:21:37.839Z,52.46
2019-04-11T21:24:08.501Z,52.40
2019-04-11T21:26:39.951Z,52.42
2019-04-11T21:29:10.466Z,52.32
2019-04-11T21:31:41.013Z,52.39
2019-04-11T21:34:11.566Z,52.27
2019-04-11T21:36:41.834Z,52.23
2019-04-11T21:39:12.041Z,52.36
2019-04-11T21:41:42.201Z,52.43
2019-04-11T21:44:12.139Z,52.58
2019-04-11T21:46:42.626Z,52.73
2019-04-11T21:49:13.069Z,52.94
2019-04-11T21:51:43.002Z,53.12
2019-04-11T21:54:14.946Z,53.18
2019-04-11T21:56:49.278Z,53.24
2019-04-11T21:59:20.330Z,53.54
2019-04-11T22:01:53.810Z,53.61
2019-04-11T22:04:26.894Z,53.63
2019-04-11T22:06:55.184Z,53.70
2019-04-11T22:09:25.884Z,53.91
2019-04-11T22:11:56.430Z,54.06
2019-04-11T22:14:26.664Z,54.18
2019-04-11T22:16:56.556Z,54.27
2019-04-11T22:19:26.576Z,54.41
2019-04-11T22:21:56.814Z,54.45
2019-04-11T22:24:27.635Z,54.79
2019-04-11T22:26:57.872Z,54.90
2019-04-11T22:29:28.810Z,55.02
2019-04-11T22:31:59.705Z,55.13
2019-04-11T22:34:41.989Z,55.18
2019-04-11T22:37:11.979Z,55.42
2019-04-11T22:39:42.193Z,55.48
2019-04-11T22:42:12.566Z,55.29
2019-04-11T22:44:43.651Z,55.47
2019-04-11T22:47:13.868Z,55.48
2019-04-11T22:49:44.143Z,55.72
2019-04-11T22:52:15.344Z,55.57
2019-04-11T22:54:46.179Z,55.59
2019-04-11T22:57:16.672Z,55.39
2019-04-11T22:59:46.911Z,55.79
2019-04-11T23:02:24.718Z,55.44
2019-04-11T23:04:54.928Z,55.51
2019-04-11T23:07:25.469Z,55.60
2019-04-11T23:09:56.007Z,55.80
2019-04-11T23:12:26.545Z,55.79
2019-04-11T23:14:56.755Z,56.09
2019-04-11T23:17:26.654Z,55.98
2019-04-11T23:19:57.196Z,55.94
2019-04-11T23:22:27.503Z,55.95
2019-04-11T23:24:57.898Z,56.04
2019-04-11T23:27:28.084Z,56.08
2019-04-11T23:29:58.924Z,56.07
2019-04-11T23:32:29.245Z,55.83
2019-04-11T23:34:59.209Z,56.09
2019-04-11T23:37:31.447Z,55.83
2019-04-11T23:40:01.751Z,55.62
2019-04-11T23:42:32.522Z,55.81
2019-04-11T23:45:03.411Z,55.69
2019-04-11T23:47:33.647Z,55.57
2019-04-11T23:50:03.937Z,55.24
2019-04-11T23:52:33.842Z,55.46
2019-04-11T23:55:04.125Z,55.61
2019-04-11T23:57:34.616Z,55.72
